Time;durP1;ratioP1;P1;durP2;ratioP2;P2;SDS_P1;SDS_P2;PMS_P1;PMS_P2;Temp;Humidity;BMP_temperature;BMP_pressure;BME280_temperature;BME280_humidity;BME280_pressure;Samples;Min_cycle;Max_cycle;Signal;HPM_P1;HPM_P2
2022/11/19 00:04:43;;;;;;;9.30;5.65;;;;;;;;;;10328163;28;20067;-49
2022/11/19 00:09:43;;;;;;;7.57;6.13;;;;;;;;;;10328202;28;20026;-46
2022/11/19 00:14:44;;;;;;;7.18;5.75;;;;;;;;;;10327541;28;20026;-47
2022/11/19 00:19:44;;;;;;;6.30;5.70;;;;;;;;;;10328514;28;20058;-47
2022/11/19 00:24:45;;;;;;;7.72;6.03;;;;;;;;;;10327999;28;20362;-48
2022/11/19 00:29:45;;;;;;;7.70;5.75;;;;;;;;;;10327524;28;20423;-47
2022/11/19 00:34:46;;;;;;;8.05;5.95;;;;;;;;;;10327417;28;20030;-49
2022/11/19 00:39:46;;;;;;;9.15;6.05;;;;;;;;;;10326517;28;20041;-46
2022/11/19 00:44:47;;;;;;;8.68;5.80;;;;;;;;;;10327436;28;20517;-46
2022/11/19 00:49:48;;;;;;;6.60;5.90;;;;;;;;;;10327240;28;20054;-46
2022/11/19 00:54:48;;;;;;;6.50;5.28;;;;;;;;;;10327593;28;20042;-48
2022/11/19 00:59:49;;;;;;;7.78;5.80;;;;;;;;;;10327176;28;20033;-49
2022/11/19 01:04:49;;;;;;;6.55;5.40;;;;;;;;;;10327086;28;20038;-50
2022/11/19 01:09:50;;;;;;;6.75;5.38;;;;;;;;;;10327297;28;20031;-48
2022/11/19 01:14:50;;;;;;;6.20;5.10;;;;;;;;;;10326946;28;20029;-47
2022/11/19 01:19:51;;;;;;;7.28;5.35;;;;;;;;;;10326726;28;20030;-47
2022/11/19 01:24:52;;;;;;;6.22;5.30;;;;;;;;;;10326668;28;20081;-50
2022/11/19 01:29:53;;;;;;;6.35;5.25;;;;;;;;;;10326398;28;20046;-46
2022/11/19 01:34:53;;;;;;;8.13;5.68;;;;;;;;;;10326790;28;20026;-50
2022/11/19 01:39:54;;;;;;;6.80;5.40;;;;;;;;;;10326698;28;20030;-50
2022/11/19 01:45:06;;;;;;;5.78;4.85;;;;;;;;;;10326458;28;20061;-45
2022/11/19 01:50:07;;;;;;;7.95;5.60;;;;;;;;;;10331498;28;20394;-48
2022/11/19 01:55:08;;;;;;;6.38;5.05;;;;;;;;;;10333508;28;20031;-49
2022/11/19 02:00:10;;;;;;;8.18;5.40;;;;;;;;;;10331941;28;20034;-51
2022/11/19 02:05:11;;;;;;;5.93;4.95;;;;;;;;;;10333139;28;20084;-47
2022/11/19 02:10:12;;;;;;;7.05;4.97;;;;;;;;;;10333124;28;20459;-46
2022/11/19 02:15:44;;;;;;;9.32;4.97;;;;;;;;;;10332303;28;20040;-47
2022/11/19 02:21:07;;;;;;;5.47;4.78;;;;;;;;;;10331188;28;20398;-47
2022/11/19 02:26:47;;;;;;;5.75;4.40;;;;;;;;;;10331673;28;20025;-49
2022/11/19 02:32:13;;;;;;;6.05;4.55;;;;;;;;;;10332019;28;20046;-46
2022/11/19 02:37:23;;;;;;;6.25;4.90;;;;;;;;;;10330675;28;20050;-50
2022/11/19 02:42:30;;;;;;;6.53;5.15;;;;;;;;;;10330438;28;20031;-47
2022/11/19 02:47:50;;;;;;;5.90;5.05;;;;;;;;;;10331320;28;20022;-49
2022/11/19 02:52:51;;;;;;;6.03;4.85;;;;;;;;;;10330065;28;20381;-48
2022/11/19 03:04:28;;;;;;;7.10;5.00;;;;;;;;;;10330531;28;20441;-47
2022/11/19 03:08:56;;;;;;;9.13;4.78;;;;;;;;;;10329463;28;20030;-47
2022/11/19 03:19:45;;;;;;;6.50;4.65;;;;;;;;;;10329292;28;20034;-48
2022/11/19 03:25:07;;;;;;;5.63;4.90;;;;;;;;;;10328819;28;20025;-46
2022/11/19 03:30:10;;;;;;;5.75;4.35;;;;;;;;;;10324270;23;20058;-46
2022/11/19 03:35:21;;;;;;;4.75;4.25;;;;;;;;;;10293084;28;20142;-49
2022/11/19 03:40:24;;;;;;;5.30;4.10;;;;;;;;;;10316109;28;20340;-59
2022/11/19 03:45:31;;;;;;;5.47;4.30;;;;;;;;;;10328295;28;20238;-59
2022/11/19 03:50:45;;;;;;;4.38;3.97;;;;;;;;;;10329318;28;20038;-63
2022/11/19 03:55:56;;;;;;;4.60;4.00;;;;;;;;;;10329318;28;20118;-62
2022/11/19 04:00:57;;;;;;;4.68;3.88;;;;;;;;;;10327427;28;20034;-62
2022/11/19 04:05:57;;;;;;;4.45;3.70;;;;;;;;;;10328628;28;20031;-62
2022/11/19 04:10:58;;;;;;;5.15;4.32;;;;;;;;;;10328151;28;20034;-62
2022/11/19 04:15:59;;;;;;;5.75;4.43;;;;;;;;;;10328226;28;20026;-63
2022/11/19 04:20:59;;;;;;;4.32;3.92;;;;;;;;;;10328543;28;20038;-60
2022/11/19 04:26:00;;;;;;;4.60;3.50;;;;;;;;;;10328502;28;20057;-63
2022/11/19 04:31:00;;;;;;;6.15;4.22;;;;;;;;;;10327448;28;20448;-63
2022/11/19 04:36:01;;;;;;;4.95;4.10;;;;;;;;;;10327609;28;20104;-58
2022/11/19 04:41:01;;;;;;;4.95;4.03;;;;;;;;;;10327390;28;20033;-56
2022/11/19 04:46:02;;;;;;;4.32;3.70;;;;;;;;;;10327426;28;20049;-59
2022/11/19 04:51:03;;;;;;;4.45;3.92;;;;;;;;;;10327626;28;20026;-60
2022/11/19 04:56:04;;;;;;;3.50;3.08;;;;;;;;;;10327389;28;20470;-60
2022/11/19 05:01:05;;;;;;;4.20;3.53;;;;;;;;;;10327572;28;20032;-61
2022/11/19 05:06:06;;;;;;;4.30;3.60;;;;;;;;;;10327145;28;20034;-60
2022/11/19 05:11:07;;;;;;;4.20;3.80;;;;;;;;;;10326696;28;20033;-62
2022/11/19 05:16:08;;;;;;;4.72;3.20;;;;;;;;;;10327060;28;20508;-61
2022/11/19 05:21:08;;;;;;;4.13;3.40;;;;;;;;;;10326791;28;20023;-62
2022/11/19 05:26:09;;;;;;;5.28;3.63;;;;;;;;;;10334297;28;20114;-59
2022/11/19 05:31:10;;;;;;;3.60;3.30;;;;;;;;;;10334489;28;20066;-58
2022/11/19 05:36:10;;;;;;;5.57;3.70;;;;;;;;;;10334345;28;20109;-63
2022/11/19 05:41:11;;;;;;;4.88;4.05;;;;;;;;;;10334067;28;20034;-61
2022/11/19 05:46:12;;;;;;;6.57;3.30;;;;;;;;;;10333948;28;20034;-59
2022/11/19 05:51:14;;;;;;;3.90;3.60;;;;;;;;;;10333605;28;20023;-62
2022/11/19 05:56:15;;;;;;;4.30;3.40;;;;;;;;;;10333396;28;20030;-59
2022/11/19 06:01:24;;;;;;;4.15;3.25;;;;;;;;;;10332781;28;20026;-61
2022/11/19 06:06:26;;;;;;;5.90;3.13;;;;;;;;;;10332629;28;20045;-60
2022/11/19 06:16:45;;;;;;;3.85;3.45;;;;;;;;;;10332881;28;20030;-62
2022/11/19 06:21:47;;;;;;;3.65;3.17;;;;;;;;;;10330679;28;20023;-63
2022/11/19 06:26:47;;;;;;;3.78;3.38;;;;;;;;;;10332147;28;20062;-63
2022/11/19 06:31:48;;;;;;;3.85;3.00;;;;;;;;;;10331596;28;20054;-56
2022/11/19 06:36:48;;;;;;;3.70;3.28;;;;;;;;;;10332280;28;20062;-58
2022/11/19 06:41:49;;;;;;;3.55;3.25;;;;;;;;;;10332024;28;20034;-60
2022/11/19 06:46:50;;;;;;;3.60;2.95;;;;;;;;;;10331645;28;20476;-61
2022/11/19 06:51:50;;;;;;;3.45;2.90;;;;;;;;;;10331221;28;20084;-61
2022/11/19 06:56:51;;;;;;;3.67;3.25;;;;;;;;;;10331152;28;20482;-61
2022/11/19 07:01:51;;;;;;;3.28;2.97;;;;;;;;;;10331175;28;20137;-55
2022/11/19 07:06:52;;;;;;;3.80;2.90;;;;;;;;;;10331208;28;20030;-61
2022/11/19 07:11:52;;;;;;;4.70;3.47;;;;;;;;;;10330037;28;20509;-56
2022/11/19 07:16:55;;;;;;;3.60;3.20;;;;;;;;;;10329912;28;20026;-54
2022/11/19 07:21:56;;;;;;;12.88;3.17;;;;;;;;;;10311973;28;20023;-63
2022/11/19 07:26:56;;;;;;;7.05;3.15;;;;;;;;;;10328699;28;20375;-62
2022/11/19 07:31:57;;;;;;;4.57;3.50;;;;;;;;;;10328417;28;20049;-58
2022/11/19 07:36:57;;;;;;;24.90;3.97;;;;;;;;;;10328739;28;20053;-59
2022/11/19 07:47:17;;;;;;;4.05;2.92;;;;;;;;;;10328993;28;20022;-61
2022/11/19 07:52:18;;;;;;;4.30;3.30;;;;;;;;;;10313158;28;20482;-62
2022/11/19 07:57:19;;;;;;;8.15;3.25;;;;;;;;;;10305281;28;20037;-64
2022/11/19 08:02:19;;;;;;;11.32;3.25;;;;;;;;;;10312005;28;20022;-62
2022/11/19 08:07:20;;;;;;;10.18;3.30;;;;;;;;;;10327287;28;20033;-63
2022/11/19 08:12:20;;;;;;;7.45;3.20;;;;;;;;;;10325344;28;20481;-63
2022/11/19 08:22:41;;;;;;;10.65;3.13;;;;;;;;;;10325025;28;20155;-65
2022/11/19 08:27:42;;;;;;;3.35;2.88;;;;;;;;;;10326807;28;20037;-56
2022/11/19 08:32:42;;;;;;;6.97;3.15;;;;;;;;;;10326188;28;20046;-63
2022/11/19 08:37:43;;;;;;;15.48;3.67;;;;;;;;;;10325862;28;20033;-67
2022/11/19 08:42:58;;;;;;;10.77;3.33;;;;;;;;;;10326383;28;20019;-64
2022/11/19 08:48:01;;;;;;;9.05;3.08;;;;;;;;;;10327170;28;20189;-67
2022/11/19 08:53:04;;;;;;;7.50;3.28;;;;;;;;;;10309760;28;20030;-64
2022/11/19 08:58:06;;;;;;;10.40;3.60;;;;;;;;;;10329805;28;20030;-65
2022/11/19 09:03:07;;;;;;;7.07;3.70;;;;;;;;;;10335299;28;20109;-64
2022/11/19 09:08:08;;;;;;;10.32;3.35;;;;;;;;;;10335192;28;20030;-61
2022/11/19 09:13:08;;;;;;;15.23;3.65;;;;;;;;;;10335584;28;20486;-63
2022/11/19 09:18:09;;;;;;;7.00;3.50;;;;;;;;;;10333627;28;20026;-65
2022/11/19 09:23:09;;;;;;;9.75;3.90;;;;;;;;;;10334295;28;20057;-65
2022/11/19 09:28:10;;;;;;;7.63;3.60;;;;;;;;;;10332968;28;20046;-69
2022/11/19 09:33:10;;;;;;;14.57;3.72;;;;;;;;;;10333391;28;20022;-64
2022/11/19 09:38:11;;;;;;;10.15;3.70;;;;;;;;;;10334080;28;20056;-57
2022/11/19 09:43:45;;;;;;;7.22;3.58;;;;;;;;;;10333814;28;20046;-65
2022/11/19 09:48:46;;;;;;;10.07;3.17;;;;;;;;;;10332914;28;20023;-64
2022/11/19 09:53:58;;;;;;;9.25;3.65;;;;;;;;;;10331316;28;20517;-66
2022/11/19 09:59:06;;;;;;;14.63;4.45;;;;;;;;;;10332578;28;20025;-64
2022/11/19 10:04:10;;;;;;;10.00;3.87;;;;;;;;;;10330420;28;20030;-63
2022/11/19 10:09:47;;;;;;;12.80;4.57;;;;;;;;;;10330804;28;20030;-66
2022/11/19 10:15:17;;;;;;;14.10;3.92;;;;;;;;;;10332913;28;20034;-66
2022/11/19 10:20:48;;;;;;;10.80;5.00;;;;;;;;;;10332808;28;20164;-67
2022/11/19 10:25:51;;;;;;;11.90;4.45;;;;;;;;;;10332276;28;20494;-64
2022/11/19 10:31:01;;;;;;;9.02;4.00;;;;;;;;;;10329919;28;20054;-62
2022/11/19 10:36:14;;;;;;;12.23;4.22;;;;;;;;;;10329003;28;20034;-57
2022/11/19 10:41:31;;;;;;;15.55;4.32;;;;;;;;;;10330559;28;20030;-62
2022/11/19 10:46:32;;;;;;;10.18;4.65;;;;;;;;;;10329194;28;20027;-62
2022/11/19 10:51:41;;;;;;;7.90;3.90;;;;;;;;;;10330184;28;20038;-64
2022/11/19 10:56:41;;;;;;;10.00;4.00;;;;;;;;;;10330760;28;20552;-57
2022/11/19 11:01:47;;;;;;;5.47;3.45;;;;;;;;;;10330457;28;20100;-60
2022/11/19 11:06:58;;;;;;;10.80;4.30;;;;;;;;;;10330899;28;20022;-65
2022/11/19 11:17:45;;;;;;;6.22;3.90;;;;;;;;;;10330661;28;20033;-63
2022/11/19 11:23:00;;;;;;;5.70;3.50;;;;;;;;;;10328819;28;20081;-63
2022/11/19 11:28:14;;;;;;;8.05;3.40;;;;;;;;;;10328809;28;20109;-62
2022/11/19 11:33:37;;;;;;;11.60;3.50;;;;;;;;;;10328904;28;20038;-61
2022/11/19 11:38:50;;;;;;;7.30;3.15;;;;;;;;;;10329310;28;20022;-66
2022/11/19 11:44:03;;;;;;;7.53;3.95;;;;;;;;;;10329121;28;20053;-65
2022/11/19 11:49:06;;;;;;;7.35;3.15;;;;;;;;;;10327808;28;20045;-62
2022/11/19 11:54:19;;;;;;;4.55;3.20;;;;;;;;;;10328331;28;20034;-66
2022/11/19 11:59:24;;;;;;;7.10;3.45;;;;;;;;;;10329135;28;20045;-66
2022/11/19 12:04:25;;;;;;;18.27;5.65;;;;;;;;;;10329508;28;20026;-66
2022/11/19 12:09:48;;;;;;;29.13;8.13;;;;;;;;;;10328495;28;20037;-64
2022/11/19 12:15:13;;;;;;;22.63;7.95;;;;;;;;;;10328587;28;20093;-64
2022/11/19 12:20:46;;;;;;;22.65;9.23;;;;;;;;;;10326618;28;20030;-66
2022/11/19 12:26:37;;;;;;;28.15;9.48;;;;;;;;;;10301731;28;20132;-66
2022/11/19 12:32:10;;;;;;;26.73;9.02;;;;;;;;;;10326875;28;20064;-61
2022/11/19 12:37:43;;;;;;;34.67;9.90;;;;;;;;;;10328206;28;20057;-60
2022/11/19 12:43:34;;;;;;;23.92;8.90;;;;;;;;;;10327733;28;20038;-62
2022/11/19 12:48:56;;;;;;;26.40;8.10;;;;;;;;;;10327504;28;20035;-65
2022/11/19 12:54:18;;;;;;;18.30;8.68;;;;;;;;;;10326353;28;20274;-65
2022/11/19 12:59:48;;;;;;;27.10;8.48;;;;;;;;;;10327518;28;20113;-63
2022/11/19 13:04:56;;;;;;;24.40;8.13;;;;;;;;;;10313041;28;20037;-62
2022/11/19 13:10:10;;;;;;;19.83;7.80;;;;;;;;;;10305995;28;20044;-62
2022/11/19 13:15:18;;;;;;;20.50;7.05;;;;;;;;;;10326260;28;20129;-65
2022/11/19 13:20:54;;;;;;;21.65;7.45;;;;;;;;;;10326092;28;20057;-65
2022/11/19 13:26:11;;;;;;;16.95;7.60;;;;;;;;;;10320465;28;20108;-62
2022/11/19 13:31:42;;;;;;;23.25;7.28;;;;;;;;;;10324201;28;20089;-64
2022/11/19 13:36:58;;;;;;;17.85;6.85;;;;;;;;;;10324895;28;20565;-59
2022/11/19 13:47:27;;;;;;;18.75;6.90;;;;;;;;;;10331742;28;20033;-62
2022/11/19 13:52:31;;;;;;;;;;;;;;;;;;10331469;28;20106;-65
2022/11/19 13:57:42;;;;;;;18.25;6.20;;;;;;;;;;10331580;28;19922;-64
2022/11/19 14:03:41;;;;;;;23.38;6.55;;;;;;;;;;10331666;28;20022;-62
2022/11/19 14:09:01;;;;;;;15.07;6.43;;;;;;;;;;10308687;28;20065;-58
2022/11/19 14:31:07;;;;;;;17.30;5.80;;;;;;;;;;10332222;28;20054;-55
2022/11/19 14:36:15;;;;;;;14.50;5.28;;;;;;;;;;10331186;28;20131;-59
2022/11/19 14:41:28;;;;;;;11.00;4.80;;;;;;;;;;10330276;28;20022;-60
2022/11/19 14:46:29;;;;;;;11.60;5.13;;;;;;;;;;10330851;28;20387;-59
2022/11/19 14:51:37;;;;;;;16.38;5.10;;;;;;;;;;10330004;28;20034;-59
2022/11/19 14:56:39;;;;;;;16.83;4.88;;;;;;;;;;10330612;28;20038;-52
2022/11/19 15:01:57;;;;;;;15.82;5.15;;;;;;;;;;10328729;28;20053;-60
2022/11/19 15:06:59;;;;;;;10.32;4.43;;;;;;;;;;10328180;28;20462;-61
2022/11/19 15:12:00;;;;;;;13.07;4.38;;;;;;;;;;10330996;28;20134;-61
2022/11/19 15:17:03;;;;;;;14.40;4.75;;;;;;;;;;10329925;28;20032;-59
2022/11/19 15:22:34;;;;;;;12.75;4.63;;;;;;;;;;10327262;28;20438;-56
2022/11/19 15:28:31;;;;;;;8.32;3.97;;;;;;;;;;10326794;28;20023;-61
2022/11/19 15:34:21;;;;;;;14.05;4.40;;;;;;;;;;10326099;28;20329;-60
2022/11/19 15:39:49;;;;;;;12.75;5.38;;;;;;;;;;10329732;28;20050;-60
2022/11/19 15:45:29;;;;;;;14.43;5.55;;;;;;;;;;10326084;28;20502;-60
2022/11/19 15:50:29;;;;;;;10.23;4.00;;;;;;;;;;10315207;28;20189;-60
2022/11/19 15:55:30;;;;;;;19.75;4.30;;;;;;;;;;10329486;28;20190;-64
2022/11/19 16:00:47;;;;;;;13.77;4.43;;;;;;;;;;10328795;28;20125;-62
2022/11/19 16:06:03;;;;;;;12.05;4.53;;;;;;;;;;10326550;28;20129;-62
2022/11/19 16:22:04;;;;;;;11.50;4.43;;;;;;;;;;10327787;28;20305;-61
2022/11/19 16:27:11;;;;;;;10.98;4.30;;;;;;;;;;10328460;28;20022;-60
2022/11/19 16:32:21;;;;;;;9.20;4.15;;;;;;;;;;10326727;28;20057;-60
2022/11/19 16:37:21;;;;;;;9.27;3.85;;;;;;;;;;10326858;28;20089;-61
2022/11/19 16:42:27;;;;;;;15.98;4.28;;;;;;;;;;10327669;28;20441;-59
2022/11/19 16:47:32;;;;;;;9.60;4.15;;;;;;;;;;10326888;28;20026;-57
2022/11/19 16:52:41;;;;;;;10.40;3.95;;;;;;;;;;10325554;28;20030;-59
2022/11/19 16:57:49;;;;;;;9.35;3.60;;;;;;;;;;10326297;28;20110;-54
2022/11/19 17:02:50;;;;;;;7.85;3.75;;;;;;;;;;10326005;28;20049;-58
2022/11/19 17:08:01;;;;;;;12.32;3.85;;;;;;;;;;10326357;28;20109;-59
2022/11/19 17:13:18;;;;;;;14.68;4.07;;;;;;;;;;10326254;28;20034;-59
2022/11/19 17:18:28;;;;;;;6.20;3.55;;;;;;;;;;10325222;28;20027;-61
2022/11/19 17:23:31;;;;;;;8.50;3.30;;;;;;;;;;10333282;28;20050;-60
2022/11/19 17:28:40;;;;;;;8.00;3.58;;;;;;;;;;10333717;28;20512;-58
2022/11/19 17:34:08;;;;;;;18.20;4.00;;;;;;;;;;10333781;28;20043;-61
2022/11/19 17:39:13;;;;;;;8.52;3.65;;;;;;;;;;10334089;28;20077;-61
2022/11/19 17:44:34;;;;;;;10.77;3.55;;;;;;;;;;10334437;28;20034;-61
2022/11/19 17:49:35;;;;;;;10.55;3.38;;;;;;;;;;10333441;28;20505;-60
2022/11/19 17:54:35;;;;;;;13.00;4.10;;;;;;;;;;10333466;28;20122;-62
2022/11/19 17:59:36;;;;;;;15.40;3.40;;;;;;;;;;10333415;28;20030;-61
2022/11/19 18:04:36;;;;;;;11.80;4.03;;;;;;;;;;10332245;28;20085;-61
2022/11/19 18:09:38;;;;;;;12.18;3.90;;;;;;;;;;10333129;28;20030;-62
2022/11/19 18:14:39;;;;;;;8.35;3.38;;;;;;;;;;10333516;28;20036;-62
2022/11/19 18:19:39;;;;;;;12.65;3.92;;;;;;;;;;10332759;28;20026;-59
2022/11/19 18:24:40;;;;;;;9.27;2.95;;;;;;;;;;10331839;28;20026;-59
2022/11/19 18:29:41;;;;;;;6.93;3.08;;;;;;;;;;10331338;28;20050;-59
2022/11/19 18:34:42;;;;;;;9.95;3.20;;;;;;;;;;10330798;28;20033;-59
2022/11/19 18:39:43;;;;;;;8.85;3.33;;;;;;;;;;10329934;28;20105;-60
2022/11/19 18:44:43;;;;;;;7.93;3.50;;;;;;;;;;10330421;28;20400;-60
2022/11/19 18:49:44;;;;;;;7.10;3.42;;;;;;;;;;10330835;28;20406;-61
2022/11/19 18:54:45;;;;;;;10.60;4.47;;;;;;;;;;10330930;28;20186;-61
2022/11/19 18:59:46;;;;;;;9.23;4.43;;;;;;;;;;10330259;28;20112;-60
2022/11/19 19:04:46;;;;;;;13.57;4.18;;;;;;;;;;10330539;28;20049;-60
2022/11/19 19:09:47;;;;;;;8.13;3.78;;;;;;;;;;10330042;28;20084;-55
2022/11/19 19:14:52;;;;;;;12.13;4.40;;;;;;;;;;10329647;28;20026;-61
2022/11/19 19:19:52;;;;;;;8.82;4.00;;;;;;;;;;10328951;28;20030;-60
2022/11/19 19:24:53;;;;;;;12.18;3.40;;;;;;;;;;10329502;28;20385;-61
2022/11/19 19:29:53;;;;;;;10.68;3.92;;;;;;;;;;10328344;28;20059;-59
2022/11/19 19:34:54;;;;;;;10.52;3.90;;;;;;;;;;10328701;28;20027;-59
2022/11/19 19:39:55;;;;;;;7.68;3.35;;;;;;;;;;10327914;28;20390;-60
2022/11/19 19:44:57;;;;;;;6.38;3.10;;;;;;;;;;10328166;28;20076;-59
2022/11/19 19:49:57;;;;;;;9.50;3.95;;;;;;;;;;10328842;28;20105;-60
2022/11/19 19:54:58;;;;;;;12.55;3.30;;;;;;;;;;10328461;28;20458;-60
2022/11/19 19:59:59;;;;;;;8.23;3.20;;;;;;;;;;10327891;28;20463;-58
2022/11/19 20:04:59;;;;;;;8.82;3.33;;;;;;;;;;10329206;28;20473;-61
2022/11/19 20:10:00;;;;;;;8.50;2.97;;;;;;;;;;10326432;28;20034;-60
2022/11/19 20:15:00;;;;;;;6.40;3.30;;;;;;;;;;10326343;28;20410;-62
2022/11/19 20:20:01;;;;;;;4.38;3.00;;;;;;;;;;10326349;28;20081;-60
2022/11/19 20:25:02;;;;;;;7.95;3.15;;;;;;;;;;10326374;28;20030;-53
2022/11/19 20:30:03;;;;;;;8.73;3.35;;;;;;;;;;10326845;28;20050;-48
2022/11/19 20:35:04;;;;;;;5.93;2.90;;;;;;;;;;10325148;28;20030;-49
2022/11/19 20:40:05;;;;;;;6.72;2.70;;;;;;;;;;10326170;28;20026;-58
2022/11/19 20:45:07;;;;;;;8.18;3.50;;;;;;;;;;10325498;28;20305;-54
2022/11/19 20:50:08;;;;;;;5.78;2.90;;;;;;;;;;10326648;28;20023;-55
2022/11/19 20:55:09;;;;;;;4.75;3.08;;;;;;;;;;10336017;28;20034;-56
2022/11/19 21:00:11;;;;;;;9.77;3.15;;;;;;;;;;10339540;28;20037;-52
2022/11/19 21:05:11;;;;;;;11.80;2.70;;;;;;;;;;10340187;28;20101;-51
2022/11/19 21:10:12;;;;;;;7.78;3.30;;;;;;;;;;10338701;28;20030;-49
2022/11/19 21:15:13;;;;;;;6.90;2.85;;;;;;;;;;10339342;28;20053;-58
2022/11/19 21:20:14;;;;;;;6.53;2.88;;;;;;;;;;10337908;28;20285;-58
2022/11/19 21:25:14;;;;;;;11.63;3.35;;;;;;;;;;10338314;28;20273;-60
2022/11/19 21:30:17;;;;;;;25.08;3.60;;;;;;;;;;10338001;28;20066;-61
2022/11/19 21:35:18;;;;;;;21.25;3.92;;;;;;;;;;10338983;28;20568;-52
2022/11/19 21:40:19;;;;;;;15.13;3.72;;;;;;;;;;10338434;28;20085;-48
2022/11/19 21:45:19;;;;;;;10.52;3.63;;;;;;;;;;10338281;28;20037;-54
2022/11/19 21:50:20;;;;;;;9.00;3.88;;;;;;;;;;10336218;28;20023;-50
2022/11/19 21:55:22;;;;;;;11.88;4.18;;;;;;;;;;10339239;28;20389;-49
2022/11/19 22:00:22;;;;;;;9.00;3.50;;;;;;;;;;10337691;28;20371;-51
2022/11/19 22:05:23;;;;;;;18.35;4.68;;;;;;;;;;10335475;28;20026;-58
2022/11/19 22:10:25;;;;;;;11.82;3.80;;;;;;;;;;10332964;28;20026;-48
2022/11/19 22:15:26;;;;;;;10.40;3.97;;;;;;;;;;10330981;28;20038;-49
2022/11/19 22:20:27;;;;;;;8.18;3.97;;;;;;;;;;10332097;28;20038;-50
2022/11/19 22:25:27;;;;;;;7.28;3.88;;;;;;;;;;10331921;28;20037;-51
2022/11/19 22:30:28;;;;;;;10.63;4.93;;;;;;;;;;10332076;28;20105;-50
2022/11/19 22:35:28;;;;;;;7.68;4.28;;;;;;;;;;10332288;28;20026;-53
2022/11/19 22:40:29;;;;;;;15.30;3.95;;;;;;;;;;10331260;28;20088;-54
2022/11/19 22:45:30;;;;;;;7.57;3.58;;;;;;;;;;10331438;28;20046;-53
2022/11/19 22:50:31;;;;;;;11.18;4.43;;;;;;;;;;10330975;28;20078;-50
2022/11/19 22:55:34;;;;;;;8.60;3.65;;;;;;;;;;10331589;28;20092;-51
2022/11/19 23:00:47;;;;;;;9.80;3.70;;;;;;;;;;10331342;28;20026;-47
2022/11/19 23:05:53;;;;;;;9.30;3.65;;;;;;;;;;10330356;28;20018;-59
2022/11/19 23:11:02;;;;;;;19.20;3.50;;;;;;;;;;10329898;28;20397;-62
2022/11/19 23:16:17;;;;;;;12.57;3.67;;;;;;;;;;10329896;28;20034;-59
2022/11/19 23:21:23;;;;;;;10.55;3.80;;;;;;;;;;10330445;28;20054;-59
2022/11/19 23:26:26;;;;;;;14.15;4.07;;;;;;;;;;10330599;28;20036;-52
2022/11/19 23:31:36;;;;;;;6.28;3.72;;;;;;;;;;10329802;28;20046;-55
2022/11/19 23:36:39;;;;;;;5.50;3.70;;;;;;;;;;10330245;28;20019;-48
2022/11/19 23:41:40;;;;;;;5.47;3.63;;;;;;;;;;10330149;28;20034;-51
2022/11/19 23:46:40;;;;;;;8.50;3.67;;;;;;;;;;10329983;28;20018;-51
2022/11/19 23:51:41;;;;;;;7.75;3.78;;;;;;;;;;10329115;28;20026;-58
2022/11/19 23:56:42;;;;;;;14.00;3.55;;;;;;;;;;10329674;28;20041;-57
